sensor_id;sensor_type;location;lat;lon;timestamp;pressure;altitude;pressure_sealevel;temperature;humidity
2294;BME280;1155;42.644;23.264;2023-05-09T00:00:46;60189.72;;;-140.67;100.00
2294;BME280;1155;42.644;23.264;2023-05-09T00:03:13;60159.00;;;-140.67;100.00
2294;BME280;1155;42.644;23.264;2023-05-09T00:05:42;60183.56;;;-140.67;100.00
2294;BME280;1155;42.644;23.264;2023-05-09T00:08:12;60156.94;;;-140.67;100.00
2294;BME280;1155;42.644;23.264;2023-05-09T00:10:39;60163.09;;;-140.67;100.00
2294;BME280;1155;42.644;23.264;2023-05-09T00:13:07;60163.09;;;-140.67;100.00
2294;BME280;1155;42.644;23.264;2023-05-09T00:15:34;60142.59;;;-140.67;100.00
2294;BME280;1155;42.644;23.264;2023-05-09T00:18:03;60152.84;;;-140.67;100.00
2294;BME280;1155;42.644;23.264;2023-05-09T00:20:30;60173.31;;;-140.67;100.00
2294;BME280;1155;42.644;23.264;2023-05-09T00:22:58;60173.31;;;-140.67;100.00
2294;BME280;1155;42.644;23.264;2023-05-09T00:25:26;60167.19;;;-140.67;100.00
2294;BME280;1155;42.644;23.264;2023-05-09T00:27:53;60154.91;;;-140.67;100.00
2294;BME280;1155;42.644;23.264;2023-05-09T00:30:21;60175.38;;;-140.67;100.00
2294;BME280;1155;42.644;23.264;2023-05-09T00:32:48;60179.47;;;-140.67;100.00
2294;BME280;1155;42.644;23.264;2023-05-09T00:35:15;60152.84;;;-140.67;100.00
2294;BME280;1155;42.644;23.264;2023-05-09T00:37:42;60165.13;;;-140.67;100.00
2294;BME280;1155;42.644;23.264;2023-05-09T00:40:09;60167.19;;;-140.67;100.00
2294;BME280;1155;42.644;23.264;2023-05-09T00:42:36;60163.09;;;-140.67;100.00
2294;BME280;1155;42.644;23.264;2023-05-09T00:45:06;60167.19;;;-140.67;100.00
2294;BME280;1155;42.644;23.264;2023-05-09T00:47:34;60150.81;;;-140.67;100.00
2294;BME280;1155;42.644;23.264;2023-05-09T00:50:01;60167.19;;;-140.67;100.00
2294;BME280;1155;42.644;23.264;2023-05-09T00:52:29;60159.00;;;-140.67;100.00
2294;BME280;1155;42.644;23.264;2023-05-09T00:54:59;60214.28;;;-140.67;100.00
2294;BME280;1155;42.644;23.264;2023-05-09T00:57:28;60167.19;;;-140.67;100.00
2294;BME280;1155;42.644;23.264;2023-05-09T00:59:55;60183.56;;;-140.67;100.00
2294;BME280;1155;42.644;23.264;2023-05-09T01:02:22;60169.22;;;-140.67;100.00
2294;BME280;1155;42.644;23.264;2023-05-09T01:04:59;60171.28;;;-140.67;100.00
2294;BME280;1155;42.644;23.264;2023-05-09T01:07:33;60154.91;;;-140.67;100.00
2294;BME280;1155;42.644;23.264;2023-05-09T01:10:07;60183.56;;;-140.67;100.00
2294;BME280;1155;42.644;23.264;2023-05-09T01:12:45;60185.59;;;-140.67;100.00
2294;BME280;1155;42.644;23.264;2023-05-09T01:15:16;60179.47;;;-140.67;100.00
2294;BME280;1155;42.644;23.264;2023-05-09T01:17:51;60163.09;;;-140.67;100.00
2294;BME280;1155;42.644;23.264;2023-05-09T01:20:26;60177.41;;;-140.67;100.00
2294;BME280;1155;42.644;23.264;2023-05-09T01:23:08;60156.94;;;-140.67;100.00
2294;BME280;1155;42.644;23.264;2023-05-09T01:25:53;60173.31;;;-140.67;100.00
2294;BME280;1155;42.644;23.264;2023-05-09T01:28:35;60159.00;;;-140.67;100.00
2294;BME280;1155;42.644;23.264;2023-05-09T01:31:08;60191.75;;;-140.67;100.00
2294;BME280;1155;42.644;23.264;2023-05-09T01:33:37;60183.56;;;-140.67;100.00
2294;BME280;1155;42.644;23.264;2023-05-09T01:36:11;60169.22;;;-140.67;100.00
2294;BME280;1155;42.644;23.264;2023-05-09T01:38:39;60167.19;;;-140.67;100.00
2294;BME280;1155;42.644;23.264;2023-05-09T01:41:08;60187.66;;;-140.67;100.00
2294;BME280;1155;42.644;23.264;2023-05-09T01:43:40;60161.03;;;-140.67;100.00
2294;BME280;1155;42.644;23.264;2023-05-09T01:46:12;60161.03;;;-140.67;100.00
2294;BME280;1155;42.644;23.264;2023-05-09T01:48:41;60163.09;;;-140.67;100.00
2294;BME280;1155;42.644;23.264;2023-05-09T01:51:08;60197.91;;;-140.67;100.00
2294;BME280;1155;42.644;23.264;2023-05-09T01:53:37;60179.47;;;-140.67;100.00
2294;BME280;1155;42.644;23.264;2023-05-09T01:56:05;60171.28;;;-140.67;100.00
2294;BME280;1155;42.644;23.264;2023-05-09T01:58:35;60183.56;;;-140.67;100.00
2294;BME280;1155;42.644;23.264;2023-05-09T02:01:04;60163.09;;;-140.67;100.00
2294;BME280;1155;42.644;23.264;2023-05-09T02:03:33;60187.66;;;-140.67;100.00
2294;BME280;1155;42.644;23.264;2023-05-09T02:06:02;60173.31;;;-140.67;100.00
2294;BME280;1155;42.644;23.264;2023-05-09T02:08:33;60163.09;;;-140.67;100.00
2294;BME280;1155;42.644;23.264;2023-05-09T02:11:00;60216.31;;;-140.67;100.00
2294;BME280;1155;42.644;23.264;2023-05-09T02:13:29;60167.19;;;-140.67;100.00
2294;BME280;1155;42.644;23.264;2023-05-09T02:15:56;60175.38;;;-140.67;100.00
2294;BME280;1155;42.644;23.264;2023-05-09T02:18:23;60163.09;;;-140.67;100.00
2294;BME280;1155;42.644;23.264;2023-05-09T02:20:54;60173.31;;;-140.67;100.00
2294;BME280;1155;42.644;23.264;2023-05-09T02:23:21;60175.38;;;-140.67;100.00
2294;BME280;1155;42.644;23.264;2023-05-09T02:25:49;60169.22;;;-140.67;100.00
2294;BME280;1155;42.644;23.264;2023-05-09T02:28:19;60167.19;;;-140.67;100.00
2294;BME280;1155;42.644;23.264;2023-05-09T02:30:48;60179.47;;;-140.67;100.00
2294;BME280;1155;42.644;23.264;2023-05-09T02:33:16;60187.66;;;-140.67;100.00
2294;BME280;1155;42.644;23.264;2023-05-09T02:35:44;60183.56;;;-140.67;100.00
2294;BME280;1155;42.644;23.264;2023-05-09T02:38:15;60154.91;;;-140.67;100.00
2294;BME280;1155;42.644;23.264;2023-05-09T02:40:42;60202.00;;;-140.67;100.00
2294;BME280;1155;42.644;23.264;2023-05-09T02:43:09;60140.56;;;-140.67;100.00
2294;BME280;1155;42.644;23.264;2023-05-09T02:45:39;60179.47;;;-140.67;100.00
2294;BME280;1155;42.644;23.264;2023-05-09T02:48:06;60175.38;;;-140.67;100.00
2294;BME280;1155;42.644;23.264;2023-05-09T02:50:33;60169.22;;;-140.67;100.00
2294;BME280;1155;42.644;23.264;2023-05-09T02:53:02;60187.66;;;-140.67;100.00
2294;BME280;1155;42.644;23.264;2023-05-09T02:55:30;60169.22;;;-140.67;100.00
2294;BME280;1155;42.644;23.264;2023-05-09T02:57:57;60173.31;;;-140.67;100.00
2294;BME280;1155;42.644;23.264;2023-05-09T03:00:24;60154.91;;;-140.67;100.00
2294;BME280;1155;42.644;23.264;2023-05-09T03:02:51;60163.09;;;-140.67;100.00
2294;BME280;1155;42.644;23.264;2023-05-09T03:05:19;60171.28;;;-140.67;100.00
2294;BME280;1155;42.644;23.264;2023-05-09T03:07:46;60187.66;;;-140.67;100.00
2294;BME280;1155;42.644;23.264;2023-05-09T03:10:13;60193.81;;;-140.67;100.00
2294;BME280;1155;42.644;23.264;2023-05-09T03:12:41;60179.47;;;-140.67;100.00
2294;BME280;1155;42.644;23.264;2023-05-09T03:15:09;60195.84;;;-140.67;100.00
2294;BME280;1155;42.644;23.264;2023-05-09T03:17:45;60199.94;;;-140.67;100.00
2294;BME280;1155;42.644;23.264;2023-05-09T03:20:11;60163.09;;;-140.67;100.00
2294;BME280;1155;42.644;23.264;2023-05-09T03:22:38;60191.75;;;-140.67;100.00
2294;BME280;1155;42.644;23.264;2023-05-09T03:25:06;60165.13;;;-140.67;100.00
2294;BME280;1155;42.644;23.264;2023-05-09T03:27:33;60181.50;;;-140.67;100.00
2294;BME280;1155;42.644;23.264;2023-05-09T03:30:01;60181.50;;;-140.67;100.00
2294;BME280;1155;42.644;23.264;2023-05-09T03:32:28;60171.28;;;-140.67;100.00
2294;BME280;1155;42.644;23.264;2023-05-09T03:34:56;60171.28;;;-140.67;100.00
2294;BME280;1155;42.644;23.264;2023-05-09T03:37:22;60171.28;;;-140.67;100.00
2294;BME280;1155;42.644;23.264;2023-05-09T03:39:49;60191.75;;;-140.67;100.00
2294;BME280;1155;42.644;23.264;2023-05-09T03:42:16;60163.09;;;-140.67;100.00
2294;BME280;1155;42.644;23.264;2023-05-09T03:44:43;60187.66;;;-140.67;100.00
2294;BME280;1155;42.644;23.264;2023-05-09T03:47:25;60171.28;;;-140.67;100.00
2294;BME280;1155;42.644;23.264;2023-05-09T03:49:52;60159.00;;;-140.67;100.00
2294;BME280;1155;42.644;23.264;2023-05-09T03:52:22;60185.59;;;-140.67;100.00
2294;BME280;1155;42.644;23.264;2023-05-09T03:54:56;60187.66;;;-140.67;100.00
2294;BME280;1155;42.644;23.264;2023-05-09T03:57:23;60163.09;;;-140.67;100.00
2294;BME280;1155;42.644;23.264;2023-05-09T03:59:50;60195.84;;;-140.67;100.00
2294;BME280;1155;42.644;23.264;2023-05-09T04:02:16;60173.31;;;-140.67;100.00
2294;BME280;1155;42.644;23.264;2023-05-09T04:04:47;60175.38;;;-140.67;100.00
2294;BME280;1155;42.644;23.264;2023-05-09T04:07:14;60173.31;;;-140.67;100.00
2294;BME280;1155;42.644;23.264;2023-05-09T04:09:43;60183.56;;;-140.67;100.00
2294;BME280;1155;42.644;23.264;2023-05-09T04:12:10;60185.59;;;-140.67;100.00
2294;BME280;1155;42.644;23.264;2023-05-09T04:14:37;60183.56;;;-140.67;100.00
2294;BME280;1155;42.644;23.264;2023-05-09T04:17:07;60177.41;;;-140.67;100.00
2294;BME280;1155;42.644;23.264;2023-05-09T04:19:34;60195.84;;;-140.67;100.00
2294;BME280;1155;42.644;23.264;2023-05-09T04:22:04;60179.47;;;-140.67;100.00
2294;BME280;1155;42.644;23.264;2023-05-09T04:24:31;60187.66;;;-140.67;100.00
2294;BME280;1155;42.644;23.264;2023-05-09T04:26:58;60173.31;;;-140.67;100.00
2294;BME280;1155;42.644;23.264;2023-05-09T04:29:25;60181.50;;;-140.67;100.00
2294;BME280;1155;42.644;23.264;2023-05-09T04:31:53;60204.03;;;-140.67;100.00
2294;BME280;1155;42.644;23.264;2023-05-09T04:34:20;60197.91;;;-140.67;100.00
2294;BME280;1155;42.644;23.264;2023-05-09T04:36:47;60179.47;;;-140.67;100.00
2294;BME280;1155;42.644;23.264;2023-05-09T04:39:15;60191.75;;;-140.67;100.00
2294;BME280;1155;42.644;23.264;2023-05-09T04:41:43;60191.75;;;-140.67;100.00
2294;BME280;1155;42.644;23.264;2023-05-09T04:44:12;60199.94;;;-140.67;100.00
2294;BME280;1155;42.644;23.264;2023-05-09T04:46:39;60171.28;;;-140.67;100.00
2294;BME280;1155;42.644;23.264;2023-05-09T04:49:05;60183.56;;;-140.67;100.00
2294;BME280;1155;42.644;23.264;2023-05-09T04:51:32;60181.50;;;-140.67;100.00
2294;BME280;1155;42.644;23.264;2023-05-09T04:54:01;60167.19;;;-140.67;100.00
2294;BME280;1155;42.644;23.264;2023-05-09T04:56:29;60199.94;;;-140.67;100.00
2294;BME280;1155;42.644;23.264;2023-05-09T04:58:56;60195.84;;;-140.67;100.00
2294;BME280;1155;42.644;23.264;2023-05-09T05:01:23;60183.56;;;-140.67;100.00
2294;BME280;1155;42.644;23.264;2023-05-09T05:03:50;60183.56;;;-140.67;100.00
2294;BME280;1155;42.644;23.264;2023-05-09T05:06:17;60163.09;;;-140.67;100.00
2294;BME280;1155;42.644;23.264;2023-05-09T05:08:44;60191.75;;;-140.67;100.00
2294;BME280;1155;42.644;23.264;2023-05-09T05:11:11;60183.56;;;-140.67;100.00
2294;BME280;1155;42.644;23.264;2023-05-09T05:13:43;60187.66;;;-140.67;100.00
2294;BME280;1155;42.644;23.264;2023-05-09T05:16:10;60197.91;;;-140.67;100.00
2294;BME280;1155;42.644;23.264;2023-05-09T05:18:37;60202.00;;;-140.67;100.00
2294;BME280;1155;42.644;23.264;2023-05-09T05:21:04;60179.47;;;-140.67;100.00
2294;BME280;1155;42.644;23.264;2023-05-09T05:23:31;60179.47;;;-140.67;100.00
2294;BME280;1155;42.644;23.264;2023-05-09T05:25:58;60191.75;;;-140.67;100.00
2294;BME280;1155;42.644;23.264;2023-05-09T05:28:24;60191.75;;;-140.67;100.00
2294;BME280;1155;42.644;23.264;2023-05-09T05:30:53;60187.66;;;-140.67;100.00
2294;BME280;1155;42.644;23.264;2023-05-09T05:33:20;60195.84;;;-140.67;100.00
2294;BME280;1155;42.644;23.264;2023-05-09T05:35:47;60191.75;;;-140.67;100.00
2294;BME280;1155;42.644;23.264;2023-05-09T05:38:14;60152.84;;;-140.67;100.00
2294;BME280;1155;42.644;23.264;2023-05-09T05:40:46;60187.66;;;-140.67;100.00
2294;BME280;1155;42.644;23.264;2023-05-09T05:43:13;60167.19;;;-140.67;100.00
2294;BME280;1155;42.644;23.264;2023-05-09T05:45:40;60175.38;;;-140.67;100.00
2294;BME280;1155;42.644;23.264;2023-05-09T05:48:10;60199.94;;;-140.67;100.00
2294;BME280;1155;42.644;23.264;2023-05-09T05:50:37;60181.50;;;-140.67;100.00
2294;BME280;1155;42.644;23.264;2023-05-09T05:53:04;60163.09;;;-140.67;100.00
2294;BME280;1155;42.644;23.264;2023-05-09T05:55:31;60216.31;;;-140.67;100.00
2294;BME280;1155;42.644;23.264;2023-05-09T05:57:58;60193.81;;;-140.67;100.00
2294;BME280;1155;42.644;23.264;2023-05-09T06:00:24;60179.47;;;-140.67;100.00
2294;BME280;1155;42.644;23.264;2023-05-09T06:02:51;60154.91;;;-140.67;100.00
2294;BME280;1155;42.644;23.264;2023-05-09T06:05:20;60187.66;;;-140.67;100.00
2294;BME280;1155;42.644;23.264;2023-05-09T06:07:46;60179.47;;;-140.67;100.00
2294;BME280;1155;42.644;23.264;2023-05-09T06:10:13;60183.56;;;-140.67;100.00
2294;BME280;1155;42.644;23.264;2023-05-09T06:12:43;60193.81;;;-140.67;100.00
2294;BME280;1155;42.644;23.264;2023-05-09T06:15:10;60204.03;;;-140.67;100.00
2294;BME280;1155;42.644;23.264;2023-05-09T06:17:37;60159.00;;;-140.67;100.00
2294;BME280;1155;42.644;23.264;2023-05-09T06:20:06;60167.19;;;-140.67;100.00
2294;BME280;1155;42.644;23.264;2023-05-09T06:22:35;60179.47;;;-140.67;100.00
2294;BME280;1155;42.644;23.264;2023-05-09T06:25:02;60191.75;;;-140.67;100.00
2294;BME280;1155;42.644;23.264;2023-05-09T06:27:30;60189.72;;;-140.67;100.00
2294;BME280;1155;42.644;23.264;2023-05-09T06:29:59;60197.91;;;-140.67;100.00
2294;BME280;1155;42.644;23.264;2023-05-09T06:32:26;60193.81;;;-140.67;100.00
2294;BME280;1155;42.644;23.264;2023-05-09T06:34:53;60195.84;;;-140.67;100.00
2294;BME280;1155;42.644;23.264;2023-05-09T06:37:23;60210.19;;;-140.67;100.00
2294;BME280;1155;42.644;23.264;2023-05-09T06:39:53;60187.66;;;-140.67;100.00
2294;BME280;1155;42.644;23.264;2023-05-09T06:42:20;60195.84;;;-140.67;100.00
2294;BME280;1155;42.644;23.264;2023-05-09T06:44:47;60185.59;;;-140.67;100.00
2294;BME280;1155;42.644;23.264;2023-05-09T06:47:14;60208.13;;;-140.67;100.00
2294;BME280;1155;42.644;23.264;2023-05-09T06:49:41;60191.75;;;-140.67;100.00
2294;BME280;1155;42.644;23.264;2023-05-09T06:52:11;60167.19;;;-140.67;100.00
2294;BME280;1155;42.644;23.264;2023-05-09T06:54:40;60199.94;;;-140.67;100.00
2294;BME280;1155;42.644;23.264;2023-05-09T06:57:08;60187.66;;;-140.67;100.00
2294;BME280;1155;42.644;23.264;2023-05-09T06:59:35;60181.50;;;-140.67;100.00
2294;BME280;1155;42.644;23.264;2023-05-09T07:02:02;60199.94;;;-140.67;100.00
2294;BME280;1155;42.644;23.264;2023-05-09T07:04:29;60171.28;;;-140.67;100.00
2294;BME280;1155;42.644;23.264;2023-05-09T07:06:56;60208.13;;;-140.67;100.00
2294;BME280;1155;42.644;23.264;2023-05-09T07:09:23;60179.47;;;-140.67;100.00
2294;BME280;1155;42.644;23.264;2023-05-09T07:11:58;60204.03;;;-140.67;100.00
2294;BME280;1155;42.644;23.264;2023-05-09T07:14:26;60161.03;;;-140.67;100.00
2294;BME280;1155;42.644;23.264;2023-05-09T07:16:53;60183.56;;;-140.67;100.00
2294;BME280;1155;42.644;23.264;2023-05-09T07:19:20;60199.94;;;-140.67;100.00
2294;BME280;1155;42.644;23.264;2023-05-09T07:21:49;60193.81;;;-140.67;100.00
2294;BME280;1155;42.644;23.264;2023-05-09T07:24:16;60183.56;;;-140.67;100.00
2294;BME280;1155;42.644;23.264;2023-05-09T07:26:43;60187.66;;;-140.67;100.00
2294;BME280;1155;42.644;23.264;2023-05-09T07:29:12;60191.75;;;-140.67;100.00
2294;BME280;1155;42.644;23.264;2023-05-09T07:31:40;60187.66;;;-140.67;100.00
2294;BME280;1155;42.644;23.264;2023-05-09T07:34:07;60212.22;;;-140.67;100.00
2294;BME280;1155;42.644;23.264;2023-05-09T07:36:34;60189.72;;;-140.67;100.00
2294;BME280;1155;42.644;23.264;2023-05-09T07:39:01;60195.84;;;-140.67;100.00
2294;BME280;1155;42.644;23.264;2023-05-09T07:41:29;60204.03;;;-140.67;100.00
2294;BME280;1155;42.644;23.264;2023-05-09T07:43:56;60195.84;;;-140.67;100.00
2294;BME280;1155;42.644;23.264;2023-05-09T07:46:23;60191.75;;;-140.67;100.00
2294;BME280;1155;42.644;23.264;2023-05-09T07:48:51;60208.13;;;-140.67;100.00
2294;BME280;1155;42.644;23.264;2023-05-09T07:51:18;60202.00;;;-140.67;100.00
2294;BME280;1155;42.644;23.264;2023-05-09T07:53:45;60208.13;;;-140.67;100.00
2294;BME280;1155;42.644;23.264;2023-05-09T07:56:11;60214.28;;;-140.67;100.00
2294;BME280;1155;42.644;23.264;2023-05-09T07:58:38;60214.28;;;-140.67;100.00
2294;BME280;1155;42.644;23.264;2023-05-09T08:01:08;60191.75;;;-140.67;98.38
2294;BME280;1155;42.644;23.264;2023-05-09T08:03:36;60197.91;;;-140.67;93.47
2294;BME280;1155;42.644;23.264;2023-05-09T08:06:05;60206.09;;;-140.67;100.00
2294;BME280;1155;42.644;23.264;2023-05-09T08:08:32;60216.31;;;-140.67;88.13
2294;BME280;1155;42.644;23.264;2023-05-09T08:10:59;60224.53;;;-140.67;81.15
2294;BME280;1155;42.644;23.264;2023-05-09T08:13:26;60220.41;;;-140.67;71.67
2294;BME280;1155;42.644;23.264;2023-05-09T08:15:52;60228.63;;;-140.67;65.23
2294;BME280;1155;42.644;23.264;2023-05-09T08:18:19;60236.81;;;-140.67;82.67
2294;BME280;1155;42.644;23.264;2023-05-09T08:20:46;60218.38;;;-140.67;59.76
2294;BME280;1155;42.644;23.264;2023-05-09T08:23:14;60253.19;;;-140.67;56.35
2294;BME280;1155;42.644;23.264;2023-05-09T08:25:41;60224.53;;;-140.67;54.31
2294;BME280;1155;42.644;23.264;2023-05-09T08:28:09;60257.28;;;-140.67;51.64
2294;BME280;1155;42.644;23.264;2023-05-09T08:30:36;60236.81;;;-140.67;55.65
2294;BME280;1155;42.644;23.264;2023-05-09T08:33:02;60240.91;;;-140.67;55.41
2294;BME280;1155;42.644;23.264;2023-05-09T08:35:29;60224.53;;;-140.67;62.26
2294;BME280;1155;42.644;23.264;2023-05-09T08:37:56;60220.41;;;-140.67;61.98
2294;BME280;1155;42.644;23.264;2023-05-09T08:40:24;60208.13;;;-140.67;68.65
2294;BME280;1155;42.644;23.264;2023-05-09T08:42:51;60187.66;;;-140.67;71.31
2294;BME280;1155;42.644;23.264;2023-05-09T08:45:22;60220.41;;;-140.67;72.48
2294;BME280;1155;42.644;23.264;2023-05-09T08:47:54;60204.03;;;-140.67;70.57
2294;BME280;1155;42.644;23.264;2023-05-09T08:50:22;60212.22;;;-140.67;65.53
2294;BME280;1155;42.644;23.264;2023-05-09T08:52:50;60212.22;;;-140.67;59.46
2294;BME280;1155;42.644;23.264;2023-05-09T08:55:17;60193.81;;;-140.67;61.08
2294;BME280;1155;42.644;23.264;2023-05-09T08:57:46;60220.41;;;-140.67;54.04
2294;BME280;1155;42.644;23.264;2023-05-09T09:00:13;60224.53;;;-140.67;55.35
2294;BME280;1155;42.644;23.264;2023-05-09T09:02:44;60236.81;;;-140.67;57.22
2294;BME280;1155;42.644;23.264;2023-05-09T09:05:11;60216.31;;;-140.67;54.17
2294;BME280;1155;42.644;23.264;2023-05-09T09:07:39;60240.91;;;-140.67;51.04
2294;BME280;1155;42.644;23.264;2023-05-09T09:10:09;60257.28;;;-140.67;52.55
2294;BME280;1155;42.644;23.264;2023-05-09T09:12:37;60224.53;;;-140.67;51.40
2294;BME280;1155;42.644;23.264;2023-05-09T09:15:09;60240.91;;;-140.67;51.00
2294;BME280;1155;42.644;23.264;2023-05-09T09:17:41;60234.75;;;-140.67;51.37
2294;BME280;1155;42.644;23.264;2023-05-09T09:20:11;60218.38;;;-140.67;58.99
2294;BME280;1155;42.644;23.264;2023-05-09T09:22:40;60240.91;;;-140.67;59.41
2294;BME280;1155;42.644;23.264;2023-05-09T09:25:09;60224.53;;;-140.67;65.13
2294;BME280;1155;42.644;23.264;2023-05-09T09:27:38;60204.03;;;-140.67;70.36
2294;BME280;1155;42.644;23.264;2023-05-09T09:30:09;60202.00;;;-140.67;84.28
2294;BME280;1155;42.644;23.264;2023-05-09T09:32:37;60187.66;;;-140.67;100.00
2294;BME280;1155;42.644;23.264;2023-05-09T09:35:05;60208.13;;;-140.67;100.00
2294;BME280;1155;42.644;23.264;2023-05-09T09:37:33;60183.56;;;-140.67;100.00
2294;BME280;1155;42.644;23.264;2023-05-09T09:40:01;60199.94;;;-140.67;100.00
2294;BME280;1155;42.644;23.264;2023-05-09T09:42:39;60199.94;;;-140.67;100.00
2294;BME280;1155;42.644;23.264;2023-05-09T09:45:10;60220.41;;;-140.67;100.00
2294;BME280;1155;42.644;23.264;2023-05-09T09:47:45;60195.84;;;-140.67;100.00
2294;BME280;1155;42.644;23.264;2023-05-09T09:50:16;60204.03;;;-140.67;100.00
2294;BME280;1155;42.644;23.264;2023-05-09T09:52:48;60183.56;;;-140.67;100.00
2294;BME280;1155;42.644;23.264;2023-05-09T09:55:16;60199.94;;;-140.67;100.00
2294;BME280;1155;42.644;23.264;2023-05-09T09:57:43;60197.91;;;-140.67;100.00
2294;BME280;1155;42.644;23.264;2023-05-09T10:00:13;60195.84;;;-140.67;100.00
2294;BME280;1155;42.644;23.264;2023-05-09T10:02:51;60187.66;;;-140.67;100.00
2294;BME280;1155;42.644;23.264;2023-05-09T10:05:19;60212.22;;;-140.67;100.00
2294;BME280;1155;42.644;23.264;2023-05-09T10:07:49;60195.84;;;-140.67;100.00
2294;BME280;1155;42.644;23.264;2023-05-09T10:10:17;60187.66;;;-140.67;100.00
2294;BME280;1155;42.644;23.264;2023-05-09T10:12:44;60208.13;;;-140.67;100.00
2294;BME280;1155;42.644;23.264;2023-05-09T10:15:15;60212.22;;;-140.67;100.00
2294;BME280;1155;42.644;23.264;2023-05-09T10:17:44;60191.75;;;-140.67;100.00
2294;BME280;1155;42.644;23.264;2023-05-09T10:20:12;60187.66;;;-140.67;100.00
2294;BME280;1155;42.644;23.264;2023-05-09T10:22:42;60216.31;;;-140.67;100.00
2294;BME280;1155;42.644;23.264;2023-05-09T10:25:13;60224.53;;;-140.67;95.77
2294;BME280;1155;42.644;23.264;2023-05-09T10:27:44;60204.03;;;-140.67;100.00
2294;BME280;1155;42.644;23.264;2023-05-09T10:30:16;60195.84;;;-140.67;100.00
2294;BME280;1155;42.644;23.264;2023-05-09T10:32:51;60206.09;;;-140.67;93.48
2294;BME280;1155;42.644;23.264;2023-05-09T10:35:19;60222.47;;;-140.67;92.79
2294;BME280;1155;42.644;23.264;2023-05-09T10:37:48;60212.22;;;-140.67;100.00
2294;BME280;1155;42.644;23.264;2023-05-09T10:40:16;60212.22;;;-140.67;97.64
2294;BME280;1155;42.644;23.264;2023-05-09T10:42:44;60220.41;;;-140.67;97.30
2294;BME280;1155;42.644;23.264;2023-05-09T10:45:13;60226.56;;;-140.67;100.00
2294;BME280;1155;42.644;23.264;2023-05-09T10:47:41;60222.47;;;-140.67;100.00
2294;BME280;1155;42.644;23.264;2023-05-09T10:50:14;60191.75;;;-140.67;100.00
2294;BME280;1155;42.644;23.264;2023-05-09T10:53:05;60232.72;;;-140.67;93.70
2294;BME280;1155;42.644;23.264;2023-05-09T10:55:47;60216.31;;;-140.67;83.33
2294;BME280;1155;42.644;23.264;2023-05-09T10:58:24;60228.63;;;-140.67;77.08
2294;BME280;1155;42.644;23.264;2023-05-09T11:00:54;60236.81;;;-140.67;62.64
2294;BME280;1155;42.644;23.264;2023-05-09T11:03:21;60238.84;;;-140.67;57.55
2294;BME280;1155;42.644;23.264;2023-05-09T11:05:52;60261.38;;;-140.67;52.58
2294;BME280;1155;42.644;23.264;2023-05-09T11:08:25;60269.56;;;-140.67;51.56
2294;BME280;1155;42.644;23.264;2023-05-09T11:10:56;60279.81;;;-140.67;45.96
2294;BME280;1155;42.644;23.264;2023-05-09T11:13:30;60269.56;;;-140.67;44.09
2294;BME280;1155;42.644;23.264;2023-05-09T11:16:08;60245.00;;;-140.67;47.56
2294;BME280;1155;42.644;23.264;2023-05-09T11:18:48;60242.94;;;-140.67;54.94
2294;BME280;1155;42.644;23.264;2023-05-09T11:21:16;60232.72;;;-140.67;58.90
2294;BME280;1155;42.644;23.264;2023-05-09T11:23:44;60216.31;;;-140.67;60.81
2294;BME280;1155;42.644;23.264;2023-05-09T11:26:13;60238.84;;;-140.67;57.04
2294;BME280;1155;42.644;23.264;2023-05-09T11:28:50;60249.09;;;-140.67;52.81
2294;BME280;1155;42.644;23.264;2023-05-09T11:31:19;60240.91;;;-140.67;52.12
2294;BME280;1155;42.644;23.264;2023-05-09T11:33:48;60257.28;;;-140.67;51.06
2294;BME280;1155;42.644;23.264;2023-05-09T11:36:26;60245.00;;;-140.67;47.38
2294;BME280;1155;42.644;23.264;2023-05-09T11:39:02;60240.91;;;-140.67;49.11
2294;BME280;1155;42.644;23.264;2023-05-09T11:41:37;60232.72;;;-140.67;48.83
2294;BME280;1155;42.644;23.264;2023-05-09T11:44:11;60257.28;;;-140.67;43.76
2294;BME280;1155;42.644;23.264;2023-05-09T11:46:41;60257.28;;;-140.67;41.97
2294;BME280;1155;42.644;23.264;2023-05-09T11:49:13;60271.63;;;-140.67;44.45
2294;BME280;1155;42.644;23.264;2023-05-09T11:51:41;60232.72;;;-140.67;46.30
2294;BME280;1155;42.644;23.264;2023-05-09T11:54:11;60253.19;;;-140.67;48.10
2294;BME280;1155;42.644;23.264;2023-05-09T11:56:45;60216.31;;;-140.67;52.82
2294;BME280;1155;42.644;23.264;2023-05-09T11:59:11;60216.31;;;-140.67;61.94
2294;BME280;1155;42.644;23.264;2023-05-09T12:01:44;60195.84;;;-140.67;78.30
2294;BME280;1155;42.644;23.264;2023-05-09T12:04:11;60228.63;;;-140.67;84.33
2294;BME280;1155;42.644;23.264;2023-05-09T12:06:37;60210.19;;;-140.67;91.29
2294;BME280;1155;42.644;23.264;2023-05-09T12:09:04;60228.63;;;-140.67;99.48
2294;BME280;1155;42.644;23.264;2023-05-09T12:11:31;60208.13;;;-140.67;100.00
2294;BME280;1155;42.644;23.264;2023-05-09T12:13:59;60195.84;;;-140.67;100.00
2294;BME280;1155;42.644;23.264;2023-05-09T12:16:27;60204.03;;;-140.67;100.00
2294;BME280;1155;42.644;23.264;2023-05-09T12:18:56;60212.22;;;-140.67;100.00
2294;BME280;1155;42.644;23.264;2023-05-09T12:21:32;60189.72;;;-140.67;100.00
2294;BME280;1155;42.644;23.264;2023-05-09T12:23:59;60208.13;;;-140.67;100.00
2294;BME280;1155;42.644;23.264;2023-05-09T12:26:26;60161.03;;;-140.67;100.00
2294;BME280;1155;42.644;23.264;2023-05-09T12:28:55;60175.38;;;-140.67;100.00
2294;BME280;1155;42.644;23.264;2023-05-09T12:31:27;60206.09;;;-140.67;100.00
2294;BME280;1155;42.644;23.264;2023-05-09T12:33:59;60218.38;;;-140.67;100.00
2294;BME280;1155;42.644;23.264;2023-05-09T12:36:26;60177.41;;;-140.67;100.00
2294;BME280;1155;42.644;23.264;2023-05-09T12:38:56;60187.66;;;-140.67;100.00
2294;BME280;1155;42.644;23.264;2023-05-09T12:41:23;60199.94;;;-140.67;100.00
2294;BME280;1155;42.644;23.264;2023-05-09T12:43:51;60208.13;;;-140.67;100.00
2294;BME280;1155;42.644;23.264;2023-05-09T12:46:18;60214.28;;;-140.67;100.00
2294;BME280;1155;42.644;23.264;2023-05-09T12:48:46;60202.00;;;-140.67;100.00
2294;BME280;1155;42.644;23.264;2023-05-09T12:51:18;60199.94;;;-140.67;100.00